Time;durP1;ratioP1;P1;durP2;ratioP2;P2;SDS_P1;SDS_P2;PMS_P1;PMS_P2;Temp;Humidity;BMP_temperature;BMP_pressure;BME280_temperature;BME280_humidity;BME280_pressure;Samples;Min_cycle;Max_cycle;Signal;HPM_P1;HPM_P2
2023/01/17 00:01:50;;;;;;;5.50;1.27;;;;;;;1.45;100.00;98309.81;5079830;28;20474;-83
2023/01/17 00:09:53;;;;;;;4.80;0.95;;;;;;;1.33;100.00;98301.69;5115154;28;20053;-83
2023/01/17 00:12:28;;;;;;;2.85;0.60;;;;;;;1.29;100.00;98298.66;5080986;28;20035;-83
2023/01/17 00:14:55;;;;;;;3.70;0.80;;;;;;;1.27;100.00;98315.94;5114870;28;20066;-83
2023/01/17 00:17:25;;;;;;;6.20;0.90;;;;;;;1.26;100.00;98317.00;5096597;28;20055;-82
2023/01/17 01:35:04;;;;;;;2.70;1.40;;;;;;;0.37;100.00;98421.72;5098537;28;20134;-84
2023/01/17 01:37:30;;;;;;;2.63;1.70;;;;;;;0.27;100.00;98424.81;5078506;28;20047;-83
2023/01/17 01:39:56;;;;;;;2.00;1.80;;;;;;;0.23;100.00;98433.44;5062217;28;20032;-83
2023/01/17 01:42:21;;;;;;;2.10;1.60;;;;;;;0.13;100.00;98441.84;5094893;28;20101;-83
2023/01/17 01:44:52;;;;;;;4.27;2.53;;;;;;;0.11;100.00;98443.91;5095682;28;20059;-83
2023/01/17 01:47:35;;;;;;;2.28;1.95;;;;;;;0.09;100.00;98444.13;5095711;28;20273;-83
2023/01/17 01:50:04;;;;;;;2.45;2.22;;;;;;;0.08;100.00;98455.00;5095364;28;20047;-83
2023/01/17 01:52:32;;;;;;;3.58;2.10;;;;;;;0.05;100.00;98455.41;5094864;28;20052;-83
2023/01/17 01:55:10;;;;;;;6.30;1.95;;;;;;;0.03;100.00;98460.13;5095091;28;20028;-83
2023/01/17 01:57:46;;;;;;;2.10;1.57;;;;;;;0.11;100.00;98465.25;5098031;28;20474;-83
2023/01/17 02:00:15;;;;;;;4.63;2.30;;;;;;;0.14;100.00;98473.66;5098889;28;20270;-83
2023/01/17 02:02:43;;;;;;;3.42;2.10;;;;;;;0.18;100.00;98471.41;5117144;28;20487;-83
2023/01/17 02:05:10;;;;;;;5.05;2.03;;;;;;;0.25;100.00;98469.56;5099316;28;20032;-84
2023/01/17 02:07:43;;;;;;;3.25;2.10;;;;;;;0.28;100.00;98476.31;5099274;28;20027;-83
2023/01/17 02:10:09;;;;;;;3.13;2.03;;;;;;;0.30;100.00;98474.28;5098674;28;20027;-83
2023/01/17 02:12:36;;;;;;;6.70;2.08;;;;;;;0.37;100.00;98474.25;5098616;28;20282;-83
2023/01/17 02:15:05;;;;;;;4.88;1.90;;;;;;;0.37;100.00;98482.25;5098857;28;20487;-83
2023/01/17 02:17:46;;;;;;;4.50;1.70;;;;;;;0.42;100.00;98495.81;5081916;28;20035;-83
2023/01/17 02:20:26;;;;;;;6.63;1.48;;;;;;;0.41;100.00;98499.50;5117410;28;20478;-83
2023/01/17 02:23:27;;;;;;;6.10;1.00;;;;;;;0.46;100.00;98507.72;5098544;28;20126;-83
2023/01/17 02:26:40;;;;;;;4.75;1.00;;;;;;;0.44;100.00;98510.56;5099020;28;20752;-83
2023/01/17 02:29:20;;;;;;;4.07;0.93;;;;;;;0.28;100.00;98511.81;5062073;28;20050;-82
2023/01/17 02:31:56;;;;;;;4.55;0.60;;;;;;;0.14;100.00;98516.31;5116984;28;20031;-82
2023/01/17 02:34:46;;;;;;;5.53;0.50;;;;;;;0.00;100.00;98517.38;5098243;28;20421;-82
2023/01/17 02:37:43;;;;;;;2.77;0.40;;;;;;;-0.16;100.00;98515.06;5117095;28;20047;-81
2023/01/17 02:40:18;;;;;;;2.53;0.30;;;;;;;-0.26;100.00;98504.81;5116642;28;20269;-81
2023/01/17 02:43:01;;;;;;;2.92;0.35;;;;;;;-0.27;100.00;98484.50;5098302;28;20467;-81
2023/01/17 02:45:27;;;;;;;1.92;0.20;;;;;;;-0.30;100.00;98482.25;5098596;28;20375;-82
2023/01/17 02:47:53;;;;;;;0.88;0.20;;;;;;;-0.34;100.00;98486.34;5098308;28;20034;-81
2023/01/17 02:50:22;;;;;;;2.93;0.20;;;;;;;-0.37;100.00;98488.41;5116248;28;20031;-81
2023/01/17 02:53:25;;;;;;;4.88;0.30;;;;;;;-0.40;100.00;98493.28;5097881;28;20052;-81
2023/01/17 02:56:22;;;;;;;3.70;0.30;;;;;;;-0.44;100.00;98511.53;5098477;28;20042;-81
2023/01/17 02:59:20;;;;;;;2.08;0.20;;;;;;;-0.50;100.00;98504.34;5088612;28;20305;-81
2023/01/17 03:02:20;;;;;;;3.13;0.20;;;;;;;-0.61;100.00;98520.91;5084446;28;20077;-81
2023/01/17 03:04:52;;;;;;;4.20;0.30;;;;;;;-0.71;100.00;98531.94;5097997;28;20084;-81
2023/01/17 03:07:24;;;;;;;1.02;0.10;;;;;;;-0.78;100.00;98531.09;5115778;28;20059;-81
2023/01/17 03:09:58;;;;;;;4.10;0.50;;;;;;;-0.86;100.00;98542.72;5098062;28;20028;-82
2023/01/17 03:12:29;;;;;;;4.30;0.40;;;;;;;-0.91;100.00;98538.00;5098191;28;20326;-81
2023/01/17 03:14:55;;;;;;;2.92;0.20;;;;;;;-0.95;100.00;98542.06;5097827;28;20464;-81
2023/01/17 03:17:25;;;;;;;4.40;0.30;;;;;;;-0.98;100.00;98539.00;5064289;28;20042;-82
2023/01/17 03:19:51;;;;;;;1.85;0.20;;;;;;;-1.02;100.00;98532.41;5081423;28;20122;-81
2023/01/17 03:22:16;;;;;;;4.70;0.30;;;;;;;-1.05;100.00;98538.94;5081218;28;20122;-81
2023/01/17 03:24:42;;;;;;;1.92;0.20;;;;;;;-1.08;100.00;98526.88;5081335;28;20031;-82
2023/01/17 03:27:07;;;;;;;5.20;0.30;;;;;;;-1.10;100.00;98531.56;5063930;28;20369;-82
2023/01/17 03:29:33;;;;;;;1.93;0.30;;;;;;;-1.10;100.00;98530.75;5097892;28;20035;-81
2023/01/17 03:31:59;;;;;;;4.00;0.35;;;;;;;-1.11;100.00;98537.06;5081025;28;20039;-82
2023/01/17 03:34:24;;;;;;;3.37;0.50;;;;;;;-1.12;100.00;98543.41;5080611;28;20384;-82
2023/01/17 03:36:50;;;;;;;2.38;0.30;;;;;;;-1.10;100.00;98539.53;5080703;28;20071;-81
2023/01/17 03:39:15;;;;;;;1.10;0.30;;;;;;;-1.10;100.00;98541.38;5097423;28;20031;-82
2023/01/17 03:41:41;;;;;;;4.73;0.40;;;;;;;-1.13;100.00;98539.94;5080329;28;20133;-82
2023/01/17 03:44:06;;;;;;;2.43;0.70;;;;;;;-1.10;100.00;98550.19;5115468;28;20463;-82
2023/01/17 03:46:31;;;;;;;3.20;0.40;;;;;;;-1.08;100.00;98550.00;5063629;28;20421;-82
2023/01/17 03:48:57;;;;;;;3.70;0.38;;;;;;;-1.10;100.00;98549.38;5097117;28;20547;-82
2023/01/17 03:51:22;;;;;;;5.40;0.60;;;;;;;-1.10;100.00;98550.19;5063487;28;20035;-81
2023/01/17 03:53:49;;;;;;;4.77;0.53;;;;;;;-1.05;100.00;98546.94;5079857;28;20040;-81
2023/01/17 03:56:15;;;;;;;4.97;0.73;;;;;;;-1.07;100.00;98538.34;5096691;28;20042;-82
2023/01/17 03:58:40;;;;;;;2.90;0.60;;;;;;;-1.08;100.00;98542.84;5096703;28;20122;-82
2023/01/17 04:01:06;;;;;;;7.22;0.80;;;;;;;-1.07;100.00;98541.00;5115111;28;20107;-82
2023/01/17 04:03:31;;;;;;;3.17;0.77;;;;;;;-1.09;100.00;98537.72;5079801;28;20031;-82
2023/01/17 04:05:57;;;;;;;3.87;0.90;;;;;;;-1.08;100.00;98542.00;5079984;28;20145;-82
2023/01/17 04:08:22;;;;;;;6.53;1.25;;;;;;;-1.04;100.00;98547.78;5079609;28;20161;-82
2023/01/17 04:10:48;;;;;;;3.75;1.30;;;;;;;-1.02;100.00;98551.84;5096876;28;20472;-82
2023/01/17 04:13:13;;;;;;;6.20;1.23;;;;;;;-1.01;100.00;98553.50;5079843;28;20066;-82
2023/01/17 04:15:39;;;;;;;5.57;1.50;;;;;;;-1.06;100.00;98556.78;5097147;28;20473;-82
2023/01/17 04:18:05;;;;;;;4.68;1.48;;;;;;;-1.08;100.00;98555.31;5096583;28;20516;-82
2023/01/17 04:20:34;;;;;;;4.57;1.40;;;;;;;-1.11;100.00;98553.88;5080345;28;20036;-84
2023/01/17 04:22:59;;;;;;;7.90;1.35;;;;;;;-1.12;100.00;98554.91;5115344;28;20098;-82
2023/01/17 04:25:25;;;;;;;4.43;1.40;;;;;;;-1.16;100.00;98550.16;5096881;28;20066;-82
2023/01/17 04:27:52;;;;;;;11.05;1.50;;;;;;;-1.16;100.00;98550.16;5080433;28;20092;-82
2023/01/17 04:30:17;;;;;;;3.70;1.30;;;;;;;-1.19;100.00;98539.91;5096499;28;20042;-82
2023/01/17 04:32:44;;;;;;;5.17;1.20;;;;;;;-1.16;100.00;98540.34;5079694;28;20035;-81
2023/01/17 04:35:09;;;;;;;6.07;1.48;;;;;;;-1.18;100.00;98537.06;5114865;28;20024;-81
2023/01/17 04:37:35;;;;;;;6.60;1.20;;;;;;;-1.18;100.00;98539.72;5096989;28;20035;-81
2023/01/17 04:40:00;;;;;;;5.20;0.80;;;;;;;-1.19;100.00;98542.56;5078710;28;20092;-82
2023/01/17 04:42:26;;;;;;;12.07;1.30;;;;;;;-1.18;100.00;98546.84;5096207;28;20040;-82
2023/01/17 04:44:51;;;;;;;5.50;1.20;;;;;;;-1.16;100.00;98548.31;5079216;28;20459;-82
2023/01/17 04:47:17;;;;;;;5.00;1.15;;;;;;;-1.15;100.00;98549.13;5079304;28;20082;-82
2023/01/17 04:49:42;;;;;;;3.10;1.00;;;;;;;-1.14;100.00;98550.78;5079720;28;20114;-82
2023/01/17 04:52:08;;;;;;;3.93;0.90;;;;;;;-1.12;100.00;98552.22;5095512;28;20475;-82
2023/01/17 04:54:33;;;;;;;5.23;1.20;;;;;;;-1.07;100.00;98570.28;5079477;28;20035;-81
2023/01/17 04:56:58;;;;;;;7.37;1.97;;;;;;;-1.06;100.00;98558.63;5078915;28;20024;-82
2023/01/17 04:59:24;;;;;;;9.02;2.05;;;;;;;-1.03;100.00;98560.03;5095725;28;20069;-82
2023/01/17 05:01:49;;;;;;;13.32;2.90;;;;;;;-1.05;100.00;98562.91;5079019;28;20031;-82
2023/01/17 05:04:15;;;;;;;11.93;3.10;;;;;;;-1.05;100.00;98560.25;5095744;28;20059;-82
2023/01/17 05:06:40;;;;;;;12.60;3.47;;;;;;;-1.02;100.00;98559.03;5079088;28;20032;-82
2023/01/17 05:09:06;;;;;;;13.57;3.97;;;;;;;-1.06;100.00;98569.25;5096142;28;20045;-82
2023/01/17 05:11:33;;;;;;;9.38;3.72;;;;;;;-1.02;100.00;98567.03;5096000;28;20464;-82
2023/01/17 05:13:59;;;;;;;13.43;4.83;;;;;;;-1.05;100.00;98557.56;5096505;28;20032;-82
2023/01/17 05:16:26;;;;;;;22.67;5.40;;;;;;;-1.01;100.00;98561.50;5095545;28;20347;-83
2023/01/17 05:18:52;;;;;;;15.48;4.85;;;;;;;-0.98;100.00;98554.97;5114271;28;20027;-82
2023/01/17 05:21:19;;;;;;;11.63;4.50;;;;;;;-1.00;100.00;98557.81;5095638;28;20381;-82
2023/01/17 05:23:44;;;;;;;18.17;6.07;;;;;;;-1.03;100.00;98560.88;5079172;28;20031;-82
2023/01/17 05:26:10;;;;;;;15.40;5.97;;;;;;;-1.07;100.00;98559.63;5095267;28;20101;-82
2023/01/17 05:28:35;;;;;;;16.17;6.13;;;;;;;-1.14;100.00;98556.09;5079020;28;20054;-82
2023/01/17 05:31:01;;;;;;;16.87;5.40;;;;;;;-1.19;100.00;98571.84;5079298;28;20488;-82
2023/01/17 05:33:26;;;;;;;15.70;5.00;;;;;;;-1.21;100.00;98568.53;5099761;28;20032;-82
2023/01/17 05:35:52;;;;;;;11.75;4.90;;;;;;;-1.24;100.00;98564.41;5082782;28;20035;-83
2023/01/17 05:38:17;;;;;;;10.97;4.70;;;;;;;-1.29;100.00;98562.34;5082977;28;20491;-82
2023/01/17 05:40:42;;;;;;;16.27;5.10;;;;;;;-1.34;100.00;98577.28;5100080;28;20035;-82
2023/01/17 05:43:08;;;;;;;15.93;5.00;;;;;;;-1.36;100.00;98587.28;5099343;28;20062;-82
2023/01/17 05:45:34;;;;;;;12.35;4.50;;;;;;;-1.35;100.00;98595.06;5117956;28;20031;-82
2023/01/17 05:48:01;;;;;;;13.93;3.93;;;;;;;-1.36;100.00;98587.28;5099371;28;20122;-82
2023/01/17 05:50:33;;;;;;;10.70;4.07;;;;;;;-1.30;100.00;98600.63;5099321;28;20451;-82
2023/01/17 05:53:02;;;;;;;9.25;3.75;;;;;;;-1.33;100.00;98598.38;5117457;28;20126;-82
2023/01/17 05:55:29;;;;;;;13.60;4.88;;;;;;;-1.37;100.00;98594.44;5099268;28;20030;-82
2023/01/17 05:57:54;;;;;;;14.50;5.47;;;;;;;-1.33;100.00;98609.00;5098815;28;20034;-83
2023/01/17 06:00:20;;;;;;;21.13;6.15;;;;;;;-1.37;100.00;98598.91;5098579;28;20036;-82
2023/01/17 06:02:46;;;;;;;15.00;6.38;;;;;;;-1.38;100.00;98603.44;5082260;28;20050;-82
2023/01/17 06:05:13;;;;;;;19.60;6.93;;;;;;;-1.43;100.00;98590.72;5117415;28;20375;-83
2023/01/17 06:07:38;;;;;;;23.63;7.93;;;;;;;-1.41;100.00;98598.50;5098666;28;20441;-83
2023/01/17 06:10:04;;;;;;;18.30;6.63;;;;;;;-1.39;100.00;98591.13;5081821;28;20028;-83
2023/01/17 06:12:30;;;;;;;22.33;8.57;;;;;;;-1.42;100.00;98583.53;5099050;28;20042;-83
2023/01/17 06:14:55;;;;;;;23.50;8.27;;;;;;;-1.51;100.00;98584.72;5099063;28;20027;-83
2023/01/17 06:17:20;;;;;;;21.13;8.10;;;;;;;-1.52;100.00;98591.88;5082141;28;20032;-82
2023/01/17 06:19:46;;;;;;;17.67;9.07;;;;;;;-1.55;100.00;98591.41;5081904;28;20110;-82
2023/01/17 06:22:11;;;;;;;16.63;8.17;;;;;;;-1.59;100.00;98598.97;5082092;28;20040;-83
2023/01/17 06:24:37;;;;;;;22.80;8.67;;;;;;;-1.62;100.00;98596.69;5098566;28;20061;-83
2023/01/17 06:27:02;;;;;;;24.20;8.30;;;;;;;-1.62;100.00;98604.69;5098725;28;20036;-82
2023/01/17 06:29:28;;;;;;;22.33;8.20;;;;;;;-1.57;100.00;98601.44;5081419;28;20440;-82
2023/01/17 06:31:53;;;;;;;21.13;7.90;;;;;;;-1.64;100.00;98601.38;5116511;28;20035;-83
2023/01/17 06:34:19;;;;;;;22.57;8.23;;;;;;;-1.66;100.00;98590.13;5098486;28;20031;-83
2023/01/17 06:36:44;;;;;;;21.88;6.50;;;;;;;-1.70;100.00;98599.47;5081288;28;20383;-85
2023/01/17 06:39:10;;;;;;;18.80;8.37;;;;;;;-1.74;100.00;98598.22;5081047;28;20032;-85
2023/01/17 06:41:35;;;;;;;26.60;8.70;;;;;;;-1.79;100.00;98596.13;5097889;28;20176;-84
2023/01/17 06:44:01;;;;;;;28.65;8.85;;;;;;;-1.78;100.00;98603.91;5097631;28;20024;-82
2023/01/17 06:46:27;;;;;;;29.40;9.00;;;;;;;-1.82;100.00;98602.66;5098249;28;20039;-83
2023/01/17 06:48:52;;;;;;;26.50;8.20;;;;;;;-1.83;100.00;98609.00;5081057;28;20491;-82
2023/01/17 06:51:18;;;;;;;19.77;8.30;;;;;;;-1.89;100.00;98615.06;5097742;28;20022;-83
2023/01/17 06:53:43;;;;;;;22.70;8.17;;;;;;;-1.92;100.00;98617.28;5097569;28;20048;-82
2023/01/17 06:56:09;;;;;;;21.00;8.03;;;;;;;-1.95;100.00;98614.00;5081181;28;20097;-82
2023/01/17 06:58:35;;;;;;;20.08;8.93;;;;;;;-1.98;100.00;98610.88;5098238;28;20024;-82
2023/01/17 07:01:09;;;;;;;24.00;8.70;;;;;;;-1.99;100.00;98611.91;5098263;28;20036;-83
2023/01/17 07:03:34;;;;;;;31.70;9.52;;;;;;;-2.00;100.00;98605.75;5097893;28;20273;-82
2023/01/17 07:06:01;;;;;;;24.90;9.25;;;;;;;-2.03;100.00;98606.13;5097773;28;20035;-82
2023/01/17 07:08:27;;;;;;;23.80;8.13;;;;;;;-2.00;100.00;98608.41;5097464;28;20115;-82
2023/01/17 07:10:59;;;;;;;23.73;8.77;;;;;;;-2.02;100.00;98613.09;5097312;28;20020;-82
2023/01/17 07:13:24;;;;;;;15.18;6.13;;;;;;;-2.03;100.00;98611.44;5097867;28;20023;-82
2023/01/17 07:15:50;;;;;;;33.87;8.40;;;;;;;-2.03;100.00;98614.09;5097375;28;20038;-82
2023/01/17 07:18:19;;;;;;;27.40;8.40;;;;;;;-2.05;100.00;98616.13;5080509;28;20039;-82
2023/01/17 07:20:45;;;;;;;21.77;8.53;;;;;;;-2.09;100.00;98609.53;5115430;28;20031;-82
2023/01/17 07:23:10;;;;;;;22.88;9.77;;;;;;;-2.08;100.00;98618.34;5080209;28;20130;-82
2023/01/17 07:25:36;;;;;;;24.50;8.30;;;;;;;-2.10;100.00;98615.06;5080156;28;20032;-82
2023/01/17 07:28:01;;;;;;;22.95;8.25;;;;;;;-2.08;100.00;98621.00;5079969;28;20032;-82
2023/01/17 07:30:27;;;;;;;26.20;9.93;;;;;;;-2.09;100.00;98620.19;5080076;28;20041;-82
2023/01/17 07:32:53;;;;;;;33.70;9.33;;;;;;;-2.12;100.00;98621.38;5080065;28;20131;-82
2023/01/17 07:35:19;;;;;;;20.17;8.85;;;;;;;-2.09;100.00;98628.16;5097426;28;20023;-83
2023/01/17 07:37:48;;;;;;;32.88;9.65;;;;;;;-2.06;100.00;98626.97;5115034;28;20120;-82
2023/01/17 07:40:18;;;;;;;26.40;10.27;;;;;;;-2.06;100.00;98627.78;5079389;28;20031;-82
2023/01/17 07:42:44;;;;;;;22.53;9.07;;;;;;;-2.12;100.00;98632.00;5115692;28;20484;-82
2023/01/17 07:45:11;;;;;;;22.95;9.80;;;;;;;-2.16;100.00;98628.06;5096719;28;20120;-82
2023/01/17 07:47:37;;;;;;;30.00;9.35;;;;;;;-2.21;100.00;98630.47;5080521;28;20031;-83
2023/01/17 07:50:04;;;;;;;25.37;10.07;;;;;;;-2.21;100.00;98640.28;5079815;28;20119;-82
2023/01/17 07:52:30;;;;;;;32.50;10.40;;;;;;;-2.19;100.00;98641.72;5063732;28;20059;-82
2023/01/17 07:54:55;;;;;;;22.65;9.70;;;;;;;-2.24;100.00;98630.84;5096091;28;20482;-82
2023/01/17 07:57:21;;;;;;;26.23;9.77;;;;;;;-2.24;100.00;98620.22;5079360;28;20035;-82
2023/01/17 07:59:49;;;;;;;24.43;9.90;;;;;;;-2.22;100.00;98634.13;5096166;28;20043;-82
2023/01/17 08:02:20;;;;;;;29.45;10.00;;;;;;;-2.18;100.00;98634.59;5080681;28;20036;-82
2023/01/17 08:04:46;;;;;;;27.80;9.73;;;;;;;-2.16;100.00;98632.56;5115263;28;20100;-83
2023/01/17 08:07:12;;;;;;;28.53;10.90;;;;;;;-2.19;100.00;98628.44;5096403;28;20472;-83
2023/01/17 08:09:41;;;;;;;34.00;11.00;;;;;;;-2.15;100.00;98634.22;5079422;28;20035;-82
2023/01/17 08:12:07;;;;;;;27.23;11.13;;;;;;;-2.11;100.00;98638.16;5079943;28;20031;-82
2023/01/17 08:14:32;;;;;;;28.10;11.17;;;;;;;-2.09;100.00;98637.97;5079948;28;20028;-82
2023/01/17 08:17:10;;;;;;;28.90;10.33;;;;;;;-2.08;100.00;98634.28;5096565;28;20042;-82
2023/01/17 08:19:35;;;;;;;29.65;11.35;;;;;;;-2.05;100.00;98642.72;5096118;28;20086;-82
2023/01/17 08:22:01;;;;;;;33.43;10.80;;;;;;;-2.02;100.00;98633.50;5097187;28;20028;-82
2023/01/17 08:24:26;;;;;;;32.22;12.38;;;;;;;-1.99;100.00;98649.13;5079583;28;20035;-82
2023/01/17 08:26:55;;;;;;;38.53;12.00;;;;;;;-1.98;100.00;98642.75;5096190;28;20157;-82
2023/01/17 08:29:21;;;;;;;26.05;10.23;;;;;;;-1.95;100.00;98653.84;5079907;28;20047;-81
2023/01/17 08:31:46;;;;;;;36.17;13.30;;;;;;;-1.91;100.00;98653.47;5114836;28;20035;-82
2023/01/17 08:34:13;;;;;;;34.00;13.00;;;;;;;-1.91;100.00;98659.59;5114119;28;20266;-82
2023/01/17 08:36:39;;;;;;;28.88;11.60;;;;;;;-1.88;100.00;98655.75;5078925;28;20038;-82
2023/01/17 08:39:05;;;;;;;31.53;11.90;;;;;;;-1.89;100.00;98656.75;5079320;28;20043;-82
2023/01/17 08:41:31;;;;;;;37.33;13.65;;;;;;;-1.87;100.00;98663.53;5062554;28;20292;-82
2023/01/17 08:43:56;;;;;;;31.73;12.45;;;;;;;-1.86;100.00;98669.66;5114167;28;20021;-82
2023/01/17 08:46:24;;;;;;;29.53;12.20;;;;;;;-1.83;100.00;98661.31;5096458;28;20030;-82
2023/01/17 08:48:57;;;;;;;33.50;12.52;;;;;;;-1.83;100.00;98650.69;5114225;28;20032;-81
2023/01/17 08:51:25;;;;;;;32.15;13.35;;;;;;;-1.81;100.00;98652.16;5114335;28;20038;-82
2023/01/17 08:53:51;;;;;;;34.50;12.13;;;;;;;-1.75;100.00;98655.09;5095249;28;20066;-82
2023/01/17 08:56:17;;;;;;;33.85;12.43;;;;;;;-1.73;100.00;98651.19;5078633;28;20278;-82
2023/01/17 08:58:43;;;;;;;36.22;12.70;;;;;;;-1.69;100.00;98657.78;5096437;28;20088;-82
2023/01/17 09:01:09;;;;;;;42.13;13.13;;;;;;;-1.65;100.00;98659.06;5095891;28;20067;-82
2023/01/17 09:03:35;;;;;;;36.65;12.95;;;;;;;-1.64;100.00;98658.06;5095515;28;20414;-82
2023/01/17 09:06:03;;;;;;;35.45;14.15;;;;;;;-1.59;100.00;98658.28;5094865;28;20114;-82
2023/01/17 09:08:28;;;;;;;34.17;13.90;;;;;;;-1.50;100.00;98655.53;5113676;28;20027;-82
2023/01/17 09:10:53;;;;;;;36.83;13.90;;;;;;;-1.46;100.00;98665.59;5078846;28;20064;-82
2023/01/17 09:13:19;;;;;;;40.43;15.33;;;;;;;-1.36;100.00;98669.75;5095448;28;20110;-82
2023/01/17 09:15:44;;;;;;;34.47;14.47;;;;;;;-1.30;100.00;98671.63;5079134;28;20020;-82
2023/01/17 09:18:10;;;;;;;36.00;14.93;;;;;;;-1.24;100.00;98665.53;5078852;28;20132;-82
2023/01/17 09:20:37;;;;;;;42.65;15.73;;;;;;;-1.14;100.00;98655.38;5079597;28;20031;-82
2023/01/17 09:23:03;;;;;;;34.20;14.17;;;;;;;-1.12;100.00;98653.38;5079267;28;20028;-82
2023/01/17 09:25:29;;;;;;;36.70;14.50;;;;;;;-1.03;100.00;98662.03;5095603;28;20510;-82
2023/01/17 09:27:55;;;;;;;45.83;14.53;;;;;;;-0.99;100.00;98660.63;5078386;28;20047;-82
2023/01/17 09:30:21;;;;;;;38.08;14.70;;;;;;;-0.95;100.00;98663.72;5095565;28;20290;-82
2023/01/17 09:32:53;;;;;;;34.43;14.33;;;;;;;-0.87;100.00;98668.91;5113845;28;20063;-83
2023/01/17 09:35:21;;;;;;;37.53;13.65;;;;;;;-0.82;100.00;98671.78;5078583;28;20036;-82
2023/01/17 09:37:50;;;;;;;35.05;14.30;;;;;;;-0.77;100.00;98668.53;5095502;28;20020;-82
2023/01/17 09:40:19;;;;;;;61.35;16.30;;;;;;;-0.68;100.00;98663.88;5078408;28;20064;-83
2023/01/17 09:42:49;;;;;;;35.27;12.87;;;;;;;-0.63;100.00;98669.47;5095167;28;20024;-82
2023/01/17 09:45:17;;;;;;;37.42;13.55;;;;;;;-0.57;100.00;98669.47;5095734;28;20024;-82
2023/01/17 09:47:46;;;;;;;35.50;13.57;;;;;;;-0.50;100.00;98672.19;5095500;28;20062;-82
2023/01/17 09:50:34;;;;;;;35.58;12.98;;;;;;;-0.45;100.00;98677.75;5095417;28;20055;-84
2023/01/17 09:53:11;;;;;;;33.47;11.55;;;;;;;-0.40;100.00;98677.97;5095329;28;20067;-83
2023/01/17 09:55:50;;;;;;;27.63;10.83;;;;;;;-0.33;100.00;98679.84;5095145;28;20028;-82
2023/01/17 09:58:42;;;;;;;35.70;12.20;;;;;;;-0.22;100.00;98680.09;5095708;28;20031;-82
2023/01/17 10:01:21;;;;;;;26.95;12.00;;;;;;;-0.13;100.00;98685.25;5113748;28;20024;-82
2023/01/17 10:04:16;;;;;;;29.98;11.77;;;;;;;-0.03;100.00;98680.38;5095843;28;20456;-82
2023/01/17 10:07:03;;;;;;;28.17;10.80;;;;;;;0.02;100.00;98683.28;5095992;28;20454;-83
2023/01/17 10:09:59;;;;;;;24.53;10.93;;;;;;;0.20;100.00;98687.22;5095038;28;20077;-82
2023/01/17 10:12:45;;;;;;;28.88;10.60;;;;;;;0.32;100.00;98689.09;5094710;28;20368;-83
2023/01/17 10:15:22;;;;;;;23.95;10.30;;;;;;;0.42;100.00;98695.91;5095197;28;20032;-82
2023/01/17 10:18:14;;;;;;;21.02;10.15;;;;;;;0.50;100.00;98693.03;5096982;28;20063;-84
2023/01/17 10:20:55;;;;;;;27.02;10.27;;;;;;;0.57;100.00;98693.03;5099428;28;20443;-82
2023/01/17 10:23:46;;;;;;;28.30;10.03;;;;;;;0.70;100.00;98690.38;5098962;28;20489;-82
2023/01/17 10:26:25;;;;;;;22.15;10.15;;;;;;;0.75;100.00;98681.75;5117325;28;20367;-82
2023/01/17 10:28:53;;;;;;;22.15;9.68;;;;;;;0.82;100.00;98685.25;5081668;28;20039;-82
2023/01/17 10:31:25;;;;;;;24.70;9.63;;;;;;;0.88;100.00;98679.91;5098320;28;20498;-82
2023/01/17 10:33:54;;;;;;;21.42;9.50;;;;;;;0.95;100.00;98679.09;5098528;28;20547;-82
2023/01/17 10:36:24;;;;;;;20.80;9.27;;;;;;;0.94;100.00;98682.81;5098132;28;20043;-83
2023/01/17 10:38:58;;;;;;;20.00;8.40;;;;;;;0.88;100.00;98682.56;5098716;28;20027;-83
2023/01/17 10:41:35;;;;;;;18.92;9.15;;;;;;;0.90;100.00;98692.25;5116369;28;20037;-83
2023/01/17 10:44:23;;;;;;;20.17;8.60;;;;;;;1.03;100.00;98687.75;5116621;28;20079;-83
2023/01/17 10:47:03;;;;;;;22.05;9.13;;;;;;;1.10;100.00;98693.06;5098688;28;20034;-83
2023/01/17 10:49:29;;;;;;;17.37;8.73;;;;;;;1.16;100.00;98694.91;5098272;28;20462;-83
2023/01/17 10:52:01;;;;;;;20.13;9.35;;;;;;;1.25;100.00;98700.03;5097861;28;20023;-82
2023/01/17 10:54:45;;;;;;;24.20;9.38;;;;;;;1.43;100.00;98700.19;5098126;28;20066;-82
2023/01/17 10:57:23;;;;;;;17.77;9.43;;;;;;;1.60;100.00;98700.59;5097985;28;20039;-82
2023/01/17 10:59:50;;;;;;;17.67;8.07;;;;;;;1.69;100.00;98688.63;5097413;28;20027;-83
2023/01/17 11:02:24;;;;;;;14.60;7.97;;;;;;;1.72;100.00;98688.19;5097714;28;20027;-82
2023/01/17 11:04:53;;;;;;;20.05;8.73;;;;;;;1.76;100.00;98685.94;5097839;28;20030;-82
2023/01/17 11:07:24;;;;;;;16.10;8.93;;;;;;;1.88;100.00;98686.09;5115998;28;20031;-82
2023/01/17 11:09:55;;;;;;;14.50;7.43;;;;;;;1.99;100.00;98680.06;5097670;28;20028;-82
2023/01/17 11:12:28;;;;;;;12.90;7.38;;;;;;;2.19;100.00;98679.19;5080754;28;20031;-82
2023/01/17 11:14:57;;;;;;;14.17;7.43;;;;;;;2.45;100.00;98679.03;5098025;28;20035;-82
2023/01/17 11:17:26;;;;;;;15.00;7.55;;;;;;;2.74;100.00;98675.94;5098417;28;20060;-82
2023/01/17 11:19:53;;;;;;;13.35;7.05;;;;;;;2.95;100.00;98672.88;5115542;28;20055;-82
2023/01/17 11:22:19;;;;;;;14.63;6.80;;;;;;;3.15;100.00;98661.97;5097390;28;20467;-82
2023/01/17 11:24:51;;;;;;;12.73;6.53;;;;;;;3.40;100.00;98673.72;5115204;28;20039;-82
2023/01/17 11:27:28;;;;;;;15.07;6.60;;;;;;;3.64;100.00;98672.81;5115979;28;20032;-82
2023/01/17 11:30:14;;;;;;;13.15;5.85;;;;;;;3.83;100.00;98670.16;5115705;28;20023;-82
2023/01/17 11:32:51;;;;;;;8.82;4.85;;;;;;;3.97;100.00;98671.63;5098247;28;20491;-82
2023/01/17 11:35:29;;;;;;;10.52;5.60;;;;;;;4.05;100.00;98662.44;5097333;28;20034;-83
2023/01/17 11:38:20;;;;;;;11.35;5.32;;;;;;;3.97;100.00;98668.09;5097219;28;20077;-82
2023/01/17 11:40:48;;;;;;;10.10;4.40;;;;;;;3.82;98.45;98661.28;5115057;28;20099;-82
2023/01/17 11:43:20;;;;;;;13.23;4.65;;;;;;;3.86;100.00;98664.31;5115335;28;20028;-82
2023/01/17 11:46:13;;;;;;;9.13;4.10;;;;;;;3.93;99.55;98653.53;5096345;28;20027;-83
2023/01/17 11:48:48;;;;;;;7.85;4.00;;;;;;;4.12;97.48;98646.22;5097452;28;20039;-82
2023/01/17 11:51:40;;;;;;;16.95;5.88;;;;;;;4.17;98.45;98646.38;5096697;28;20444;-83
2023/01/17 11:54:39;;;;;;;8.97;4.57;;;;;;;4.55;96.01;98651.41;5077840;28;20056;-82
2023/01/17 11:57:19;;;;;;;10.23;4.03;;;;;;;5.84;93.35;98640.06;5073555;28;20040;-82
2023/01/17 11:59:46;;;;;;;10.77;4.53;;;;;;;7.09;87.15;98642.81;5076537;28;20093;-82
2023/01/17 12:02:36;;;;;;;8.50;4.90;;;;;;;8.63;88.52;98633.06;5094134;28;20031;-83
2023/01/17 12:05:25;;;;;;;6.85;4.28;;;;;;;11.17;74.46;98622.94;5076308;28;20495;-83
2023/01/17 12:08:00;;;;;;;5.90;2.93;;;;;;;13.42;68.61;98625.50;5076569;28;20039;-83
2023/01/17 12:10:39;;;;;;;6.03;3.20;;;;;;;15.97;61.32;98628.41;5076405;28;20024;-83
2023/01/17 12:19:07;;;;;;;6.25;3.10;;;;;;;18.52;49.00;98628.78;5094081;28;20049;-83
2023/01/17 12:21:38;;;;;;;5.73;2.93;;;;;;;18.82;40.79;98629.72;5076299;28;20036;-83
2023/01/17 12:24:34;;;;;;;3.40;2.33;;;;;;;19.62;46.33;98628.44;5075794;28;20027;-82
2023/01/17 12:27:18;;;;;;;5.05;2.60;;;;;;;20.81;41.91;98622.06;5076060;28;20038;-83
2023/01/17 12:30:35;;;;;;;4.40;2.70;;;;;;;23.17;43.98;98618.91;5076527;28;20028;-83
2023/01/17 12:33:18;;;;;;;6.70;2.25;;;;;;;24.38;30.26;98613.94;5076336;28;20119;-83
2023/01/17 12:35:49;;;;;;;3.63;2.40;;;;;;;25.51;27.87;98610.25;5093758;28;20020;-83
2023/01/17 12:38:23;;;;;;;4.70;2.88;;;;;;;27.43;27.02;98600.53;5093646;28;20111;-83
2023/01/17 12:40:54;;;;;;;4.85;2.85;;;;;;;28.39;27.50;98592.47;5075746;28;20111;-84
2023/01/17 12:43:27;;;;;;;5.03;2.80;;;;;;;29.69;20.56;98591.66;5076158;28;20036;-83
2023/01/17 12:45:53;;;;;;;4.40;2.40;;;;;;;29.53;20.56;98580.09;5075943;28;20044;-83
2023/01/17 12:48:21;;;;;;;8.57;2.60;;;;;;;30.61;18.92;98580.72;5058804;28;20043;-83
2023/01/17 12:51:06;;;;;;;3.97;2.42;;;;;;;30.21;25.87;98577.22;5075753;28;20028;-83
2023/01/17 12:54:08;;;;;;;4.78;2.45;;;;;;;30.17;24.63;98579.22;5089268;28;20054;-83
2023/01/17 12:56:47;;;;;;;4.73;2.80;;;;;;;30.47;21.73;98574.38;5113334;28;20040;-84
2023/01/17 12:59:16;;;;;;;3.05;2.60;;;;;;;30.76;18.78;98572.25;5095701;28;20031;-84
2023/01/17 13:01:56;;;;;;;4.13;2.60;;;;;;;30.85;16.86;98578.19;5096280;28;20146;-84
2023/01/17 13:04:28;;;;;;;4.78;2.70;;;;;;;31.24;19.67;98571.59;5096092;28;20039;-84
2023/01/17 13:07:23;;;;;;;3.85;2.65;;;;;;;31.68;23.42;98571.28;5096224;28;20481;-84